createdAt,value
2023-01-03T00:06:06.436Z,9.68
2023-01-03T00:21:08.365Z,9.55
2023-01-03T00:36:11.142Z,11.00
2023-01-03T00:51:19.809Z,10.02
2023-01-03T01:06:28.754Z,8.73
2023-01-03T01:36:37.757Z,5.28
2023-01-03T01:51:39.930Z,5.32
2023-01-03T02:06:42.233Z,6.25
2023-01-03T02:22:15.957Z,6.15
2023-01-03T02:37:28.982Z,4.82
2023-01-03T02:52:32.521Z,4.50
2023-01-03T03:07:40.898Z,3.97
2023-01-03T03:23:15.031Z,3.73
2023-01-03T03:38:25.221Z,3.13
2023-01-03T03:53:32.100Z,2.85
2023-01-03T04:08:34.103Z,3.35
2023-01-03T04:23:36.038Z,2.60
2023-01-03T04:38:38.150Z,2.55
2023-01-03T04:53:40.079Z,2.88
2023-01-03T05:08:44.303Z,2.80
2023-01-03T05:24:04.671Z,2.70
2023-01-03T05:39:07.056Z,2.55
2023-01-03T05:54:12.803Z,2.40
2023-01-03T06:09:14.888Z,2.80
2023-01-03T06:24:16.844Z,3.10
2023-01-03T06:39:18.758Z,2.63
2023-01-03T06:54:29.094Z,3.45
2023-01-03T07:09:41.120Z,5.10
2023-01-03T07:24:43.106Z,4.72
2023-01-03T07:39:45.068Z,5.72
2023-01-03T07:54:47.039Z,4.93
2023-01-03T08:10:07.545Z,5.05
2023-01-03T08:25:09.901Z,6.03
2023-01-03T08:40:13.008Z,6.10
2023-01-03T08:55:15.021Z,5.82
2023-01-03T09:10:17.072Z,5.75
2023-01-03T09:25:19.217Z,6.80
2023-01-03T09:40:21.226Z,7.28
2023-01-03T09:55:47.824Z,6.40
2023-01-03T10:11:12.108Z,7.75
2023-01-03T10:26:14.323Z,5.50
2023-01-03T10:41:32.764Z,4.78
2023-01-03T10:56:36.072Z,4.90
2023-01-03T11:11:42.664Z,5.35
2023-01-03T11:26:59.162Z,6.05
2023-01-03T11:42:24.164Z,5.30
2023-01-03T11:57:36.330Z,5.50
2023-01-03T12:12:43.981Z,4.00
2023-01-03T12:27:54.575Z,5.13
2023-01-03T12:43:14.300Z,3.45
2023-01-03T12:58:39.865Z,3.80
2023-01-03T13:13:56.843Z,3.60
2023-01-03T13:29:35.739Z,3.95
2023-01-03T13:44:37.698Z,3.92
2023-01-03T13:59:44.819Z,5.28
2023-01-03T14:14:59.174Z,5.65
2023-01-03T14:30:01.388Z,9.00
2023-01-03T14:45:06.963Z,6.50
2023-01-03T15:00:33.620Z,5.70
2023-01-03T15:15:39.749Z,15.45
2023-01-03T15:30:48.911Z,14.35
2023-01-03T15:46:03.485Z,15.65
2023-01-03T16:01:07.810Z,12.93
2023-01-03T16:16:11.288Z,10.80
2023-01-03T16:31:21.914Z,11.55
2023-01-03T16:46:25.808Z,30.42
2023-01-03T17:01:28.002Z,25.15
2023-01-03T17:16:32.745Z,16.70
2023-01-03T17:31:34.941Z,16.08
2023-01-03T17:46:55.779Z,48.10
2023-01-03T18:01:58.595Z,27.08
2023-01-03T18:17:00.631Z,33.20
2023-01-03T18:32:35.743Z,37.95
2023-01-03T18:47:37.728Z,35.90
2023-01-03T19:02:39.896Z,37.50
2023-01-03T19:17:42.007Z,35.90
2023-01-03T19:32:49.192Z,31.45
2023-01-03T19:47:51.233Z,30.50
2023-01-03T20:02:56.755Z,26.33
2023-01-03T20:17:59.415Z,29.00
2023-01-03T20:33:01.401Z,29.63
2023-01-03T20:48:03.540Z,29.67
2023-01-03T21:03:05.769Z,27.88
2023-01-03T21:18:09.885Z,30.92
2023-01-03T21:33:17.509Z,28.25
2023-01-03T21:48:19.434Z,27.17
2023-01-03T22:03:40.210Z,32.38
2023-01-03T22:18:42.546Z,29.90
2023-01-03T22:33:49.057Z,36.00
2023-01-03T22:48:51.069Z,32.97
2023-01-03T23:03:54.814Z,30.42
2023-01-03T23:18:56.937Z,30.85
2023-01-03T23:33:59.980Z,34.10
2023-01-03T23:49:02.015Z,31.35
